createdAt,value
2022-12-23T00:00:22.840Z,5.70
2022-12-23T00:03:12.568Z,5.60
2022-12-23T00:05:43.107Z,5.60
2022-12-23T00:08:12.355Z,5.60
2022-12-23T00:10:42.832Z,5.60
2022-12-23T00:13:30.275Z,5.60
2022-12-23T00:16:05.946Z,5.60
2022-12-23T00:18:35.905Z,5.60
2022-12-23T00:21:09.164Z,5.60
2022-12-23T00:23:40.664Z,5.60
2022-12-23T00:26:14.471Z,5.60
2022-12-23T00:28:43.866Z,5.60
2022-12-23T00:31:15.431Z,5.60
2022-12-23T00:33:46.049Z,5.60
2022-12-23T00:36:19.579Z,5.60
2022-12-23T00:39:06.419Z,5.50
2022-12-23T00:41:53.844Z,5.60
2022-12-23T00:44:23.668Z,5.60
2022-12-23T00:46:54.770Z,5.50
2022-12-23T00:49:41.314Z,5.50
2022-12-23T00:52:13.939Z,5.60
2022-12-23T00:54:43.745Z,5.50
2022-12-23T00:57:13.858Z,5.50
2022-12-23T00:59:43.479Z,5.50
2022-12-23T01:02:32.317Z,5.60
2022-12-23T01:05:19.045Z,5.60
2022-12-23T01:07:49.279Z,5.60
2022-12-23T01:10:18.746Z,5.60
2022-12-23T01:12:48.421Z,5.60
2022-12-23T01:15:17.912Z,5.60
2022-12-23T01:17:49.472Z,5.60
2022-12-23T01:20:19.059Z,5.60
2022-12-23T01:22:48.754Z,5.60
2022-12-23T01:25:18.489Z,5.60
2022-12-23T01:27:48.497Z,5.60
2022-12-23T01:30:18.009Z,5.60
2022-12-23T01:32:49.130Z,5.60
2022-12-23T01:35:18.686Z,5.60
2022-12-23T01:37:48.340Z,5.60
2022-12-23T01:40:17.682Z,5.60
2022-12-23T01:42:47.516Z,5.60
2022-12-23T01:45:20.513Z,5.70
2022-12-23T01:47:56.922Z,5.60
2022-12-23T01:50:30.331Z,5.60
2022-12-23T01:53:08.388Z,5.70
2022-12-23T01:55:41.765Z,5.60
2022-12-23T01:58:15.444Z,5.70
2022-12-23T02:01:02.563Z,5.70
2022-12-23T02:03:45.848Z,5.70
2022-12-23T02:06:39.800Z,5.80
2022-12-23T02:09:20.195Z,5.80
2022-12-23T02:12:29.275Z,5.80
2022-12-23T02:15:33.523Z,5.80
2022-12-23T02:18:30.520Z,5.80
2022-12-23T02:21:28.256Z,5.90
2022-12-23T02:24:31.452Z,5.90
2022-12-23T02:27:24.317Z,5.90
2022-12-23T02:30:28.300Z,5.90
2022-12-23T02:33:20.184Z,5.90
2022-12-23T02:35:56.932Z,5.90
2022-12-23T02:38:31.362Z,5.90
2022-12-23T02:41:08.382Z,5.90
2022-12-23T02:43:44.277Z,5.90
2022-12-23T02:46:19.790Z,5.90
2022-12-23T02:48:55.856Z,6.00
2022-12-23T02:51:30.647Z,5.90
2022-12-23T02:54:04.706Z,6.00
2022-12-23T02:56:36.944Z,5.90
2022-12-23T02:59:11.855Z,6.00
2022-12-23T03:01:42.958Z,5.90
2022-12-23T03:04:15.819Z,5.90
2022-12-23T03:06:47.867Z,5.90
2022-12-23T03:09:25.844Z,5.90
2022-12-23T03:12:03.966Z,6.00
2022-12-23T03:14:44.748Z,6.00
2022-12-23T03:17:28.981Z,6.00
2022-12-23T03:20:05.399Z,6.00
2022-12-23T03:22:39.766Z,5.90
2022-12-23T03:25:14.962Z,6.00
2022-12-23T03:27:50.243Z,5.90
2022-12-23T03:30:22.553Z,6.00
2022-12-23T03:32:55.383Z,5.90
2022-12-23T03:35:31.719Z,6.00
2022-12-23T03:38:03.291Z,6.00
2022-12-23T03:40:37.000Z,6.00
2022-12-23T03:43:09.117Z,6.00
2022-12-23T03:45:45.158Z,6.00
2022-12-23T03:48:21.759Z,6.00
2022-12-23T03:50:57.704Z,6.00
2022-12-23T03:53:32.836Z,5.90
2022-12-23T03:56:07.097Z,5.90
2022-12-23T03:58:41.247Z,6.00
2022-12-23T04:01:17.956Z,6.00
2022-12-23T04:03:56.551Z,6.00
2022-12-23T04:06:33.507Z,6.00
2022-12-23T04:09:05.121Z,6.00
2022-12-23T04:11:35.887Z,6.00
2022-12-23T04:14:05.284Z,6.00
2022-12-23T04:16:36.166Z,6.00
2022-12-23T04:19:05.480Z,6.00
2022-12-23T04:21:36.555Z,6.00
2022-12-23T04:24:06.141Z,6.00
2022-12-23T04:26:35.866Z,6.00
2022-12-23T04:29:05.535Z,6.00
2022-12-23T04:31:35.291Z,6.00
2022-12-23T04:34:04.587Z,6.00
2022-12-23T04:36:35.972Z,6.00
2022-12-23T04:39:05.019Z,6.00
2022-12-23T04:41:34.809Z,6.00
2022-12-23T04:44:04.215Z,6.00
2022-12-23T04:46:34.081Z,6.00
2022-12-23T04:49:03.563Z,6.00
2022-12-23T04:51:33.215Z,6.00
2022-12-23T04:54:04.226Z,6.00
2022-12-23T04:56:34.004Z,6.00
2022-12-23T04:59:04.591Z,6.00
2022-12-23T05:01:34.083Z,6.00
2022-12-23T05:04:03.476Z,6.00
2022-12-23T05:06:33.243Z,6.00
2022-12-23T05:09:04.232Z,6.00
2022-12-23T05:11:40.143Z,5.90
2022-12-23T05:14:12.025Z,6.00
2022-12-23T05:16:42.056Z,6.00
2022-12-23T05:19:12.338Z,6.00
2022-12-23T05:21:42.032Z,6.00
2022-12-23T05:24:13.038Z,5.90
2022-12-23T05:26:47.621Z,6.00
2022-12-23T05:29:17.773Z,6.00
2022-12-23T05:31:48.125Z,5.90
2022-12-23T05:34:17.527Z,5.90
2022-12-23T05:36:47.551Z,5.90
2022-12-23T05:39:18.285Z,5.90
2022-12-23T05:41:48.232Z,5.90
2022-12-23T05:44:17.678Z,5.90
2022-12-23T05:46:47.331Z,5.90
2022-12-23T05:49:16.804Z,5.90
2022-12-23T05:51:46.658Z,5.90
2022-12-23T05:54:16.192Z,5.90
2022-12-23T05:56:47.564Z,5.90
2022-12-23T05:59:17.456Z,5.90
2022-12-23T06:01:47.502Z,5.80
2022-12-23T06:04:17.089Z,5.80
2022-12-23T06:06:46.803Z,5.80
2022-12-23T06:09:16.090Z,5.80
2022-12-23T06:11:47.480Z,5.80
2022-12-23T06:14:16.576Z,5.80
2022-12-23T06:16:46.286Z,5.90
2022-12-23T06:19:15.550Z,5.90
2022-12-23T06:21:45.264Z,5.90
2022-12-23T06:24:14.620Z,5.80
2022-12-23T06:26:44.484Z,5.90
2022-12-23T06:29:15.488Z,6.00
2022-12-23T06:31:45.168Z,5.90
2022-12-23T06:34:14.627Z,5.90
2022-12-23T06:36:44.408Z,5.90
2022-12-23T06:39:14.317Z,6.00
2022-12-23T06:41:44.367Z,5.90
2022-12-23T06:44:15.224Z,5.90
2022-12-23T06:46:45.454Z,5.90
2022-12-23T06:49:14.901Z,5.90
2022-12-23T06:51:44.640Z,5.90
2022-12-23T06:54:14.568Z,5.80
2022-12-23T06:56:44.294Z,5.90
2022-12-23T06:59:15.508Z,5.90
2022-12-23T07:01:45.408Z,5.90
2022-12-23T07:04:14.757Z,5.90
2022-12-23T07:06:44.635Z,5.90
2022-12-23T07:09:14.001Z,5.90
2022-12-23T07:11:44.087Z,5.90
2022-12-23T07:14:15.005Z,5.90
2022-12-23T07:16:45.499Z,5.90
2022-12-23T07:19:15.101Z,6.00
2022-12-23T07:21:44.778Z,6.00
2022-12-23T07:24:14.209Z,6.00
2022-12-23T07:26:43.914Z,6.00
2022-12-23T07:29:14.915Z,6.00
2022-12-23T07:31:44.689Z,6.00
2022-12-23T07:34:14.044Z,6.00
2022-12-23T07:36:44.316Z,6.00
2022-12-23T07:39:13.573Z,6.00
2022-12-23T07:41:43.242Z,6.00
2022-12-23T07:44:12.497Z,6.00
2022-12-23T07:46:43.766Z,5.90
2022-12-23T07:49:13.015Z,6.00
2022-12-23T07:51:42.798Z,6.00
2022-12-23T07:54:14.733Z,6.00
2022-12-23T07:56:44.488Z,5.90
2022-12-23T07:59:13.893Z,5.90
2022-12-23T08:01:45.394Z,5.90
2022-12-23T08:04:14.887Z,5.90
2022-12-23T08:06:44.752Z,5.90
2022-12-23T08:09:14.211Z,5.90
2022-12-23T08:11:44.711Z,5.80
2022-12-23T08:14:14.234Z,5.90
2022-12-23T08:16:45.530Z,5.80
2022-12-23T08:19:14.842Z,5.80
2022-12-23T08:21:44.647Z,5.90
2022-12-23T08:24:14.042Z,5.90
2022-12-23T08:26:44.201Z,5.90
2022-12-23T08:29:13.607Z,5.90
2022-12-23T08:31:44.734Z,5.80
2022-12-23T08:34:14.753Z,5.80
2022-12-23T08:36:44.425Z,5.80
2022-12-23T08:39:14.151Z,5.80
2022-12-23T08:41:46.055Z,5.90
2022-12-23T08:44:15.536Z,5.90
2022-12-23T08:46:47.217Z,5.90
2022-12-23T08:49:16.619Z,5.90
2022-12-23T08:51:47.153Z,5.90
2022-12-23T08:54:17.646Z,5.90
2022-12-23T08:56:47.440Z,6.00
2022-12-23T08:59:19.580Z,6.00
2022-12-23T09:01:51.575Z,6.00
2022-12-23T09:04:20.912Z,6.10
2022-12-23T09:06:51.101Z,6.10
2022-12-23T09:09:20.564Z,6.00
2022-12-23T09:11:50.442Z,6.00
2022-12-23T09:14:19.934Z,6.10
2022-12-23T09:16:53.779Z,6.10
2022-12-23T09:19:23.083Z,6.10
2022-12-23T09:21:52.730Z,6.00
2022-12-23T09:24:22.205Z,6.00
2022-12-23T09:26:51.945Z,5.90
2022-12-23T09:29:21.283Z,5.80
2022-12-23T09:31:51.286Z,5.90
2022-12-23T09:34:22.175Z,5.90
2022-12-23T09:36:55.259Z,5.90
2022-12-23T09:39:26.059Z,5.90
2022-12-23T09:42:05.419Z,5.90
2022-12-23T09:45:06.907Z,5.90
2022-12-23T09:47:37.296Z,5.90
2022-12-23T09:50:18.899Z,5.90
2022-12-23T09:52:56.106Z,6.00
2022-12-23T09:55:32.745Z,6.00
2022-12-23T09:58:07.815Z,6.00
2022-12-23T10:00:44.483Z,6.00
2022-12-23T10:03:22.448Z,5.90
2022-12-23T10:06:01.440Z,6.00
2022-12-23T10:08:35.332Z,6.00
2022-12-23T10:11:09.461Z,6.00
2022-12-23T10:13:42.863Z,6.00
2022-12-23T10:16:17.306Z,6.00
2022-12-23T10:18:55.120Z,6.00
2022-12-23T10:21:33.875Z,6.00
2022-12-23T10:24:08.841Z,6.00
2022-12-23T10:26:44.947Z,5.90
2022-12-23T10:29:19.862Z,5.90
2022-12-23T10:32:05.743Z,5.90
2022-12-23T10:34:47.300Z,5.90
2022-12-23T10:37:25.618Z,6.00
2022-12-23T10:40:07.278Z,6.00
2022-12-23T10:42:41.151Z,6.00
2022-12-23T10:45:34.849Z,6.00
2022-12-23T10:48:16.231Z,6.00
2022-12-23T10:50:57.039Z,6.00
2022-12-23T10:53:36.875Z,6.10
2022-12-23T10:56:08.639Z,6.10
2022-12-23T10:58:42.327Z,6.10
2022-12-23T11:01:22.122Z,6.10
2022-12-23T11:04:04.268Z,6.00
2022-12-23T11:06:37.765Z,6.10
2022-12-23T11:09:15.321Z,6.10
2022-12-23T11:12:00.414Z,6.10
2022-12-23T11:14:39.416Z,6.10
2022-12-23T11:17:21.855Z,6.10
2022-12-23T11:20:07.327Z,6.10
2022-12-23T11:22:37.857Z,6.10
2022-12-23T11:25:31.681Z,6.10
2022-12-23T11:28:05.940Z,6.10
2022-12-23T11:30:56.575Z,6.20
2022-12-23T11:33:29.514Z,6.20
2022-12-23T11:36:04.299Z,6.20
2022-12-23T11:38:35.562Z,6.30
2022-12-23T11:41:09.211Z,6.30
2022-12-23T11:43:41.283Z,6.30
2022-12-23T11:46:26.863Z,6.40
2022-12-23T11:49:19.625Z,6.40
2022-12-23T11:51:50.838Z,6.50
2022-12-23T11:54:22.587Z,6.50
2022-12-23T11:56:54.152Z,6.50
2022-12-23T11:59:32.036Z,6.50
2022-12-23T12:02:04.144Z,6.40
2022-12-23T12:04:36.477Z,6.30
2022-12-23T12:07:07.275Z,6.30
2022-12-23T12:09:41.467Z,6.20
2022-12-23T12:12:19.503Z,6.30
2022-12-23T12:14:51.670Z,6.20
2022-12-23T12:17:25.184Z,6.20
2022-12-23T12:20:07.725Z,6.20
2022-12-23T12:22:41.580Z,6.20
2022-12-23T12:25:21.492Z,6.30
2022-12-23T12:27:57.937Z,6.30
2022-12-23T12:30:33.267Z,6.30
2022-12-23T12:33:08.525Z,6.20
2022-12-23T12:35:44.293Z,6.30
2022-12-23T12:38:21.690Z,6.30
2022-12-23T12:40:55.002Z,6.40
2022-12-23T12:43:31.695Z,6.40
2022-12-23T12:46:12.307Z,6.30
2022-12-23T12:48:48.626Z,6.40
2022-12-23T12:51:27.744Z,6.30
2022-12-23T12:54:06.852Z,6.30
2022-12-23T12:56:41.867Z,6.40
2022-12-23T12:59:18.562Z,6.40
2022-12-23T13:01:58.637Z,6.40
2022-12-23T13:04:55.410Z,6.40
2022-12-23T13:07:30.501Z,6.50
2022-12-23T13:10:07.861Z,6.60
2022-12-23T13:12:51.887Z,6.70
2022-12-23T13:15:30.454Z,6.70
2022-12-23T13:18:21.480Z,6.70
2022-12-23T13:20:57.848Z,6.70
2022-12-23T13:23:43.492Z,6.60
2022-12-23T13:26:23.691Z,6.60
2022-12-23T13:29:03.878Z,6.70
2022-12-23T13:31:47.199Z,6.60
2022-12-23T13:34:31.331Z,6.60
2022-12-23T13:37:09.275Z,6.50
2022-12-23T13:39:47.612Z,6.50
2022-12-23T13:42:25.864Z,6.50
2022-12-23T13:44:57.385Z,6.60
2022-12-23T13:47:35.175Z,6.50
2022-12-23T13:50:11.845Z,6.50
2022-12-23T13:52:57.495Z,6.40
2022-12-23T13:55:52.679Z,6.50
2022-12-23T13:58:24.285Z,6.40
2022-12-23T14:01:00.581Z,6.40
2022-12-23T14:03:37.543Z,6.40
2022-12-23T14:06:22.826Z,6.30
2022-12-23T14:08:53.175Z,6.30
2022-12-23T14:11:26.496Z,6.30
2022-12-23T14:14:00.047Z,6.20
2022-12-23T14:16:51.573Z,6.20
2022-12-23T14:19:56.793Z,6.20
2022-12-23T14:22:51.883Z,6.20
2022-12-23T14:25:49.356Z,6.20
2022-12-23T14:28:44.201Z,6.20
2022-12-23T14:31:30.325Z,6.10
2022-12-23T14:34:06.940Z,6.00
2022-12-23T14:36:37.882Z,6.00
2022-12-23T14:39:39.845Z,6.00
2022-12-23T14:42:16.430Z,6.00
2022-12-23T14:44:50.685Z,6.00
2022-12-23T14:47:35.113Z,6.00
2022-12-23T14:50:41.983Z,6.00
2022-12-23T14:53:26.301Z,6.00
2022-12-23T14:56:23.182Z,6.00
2022-12-23T14:59:14.292Z,5.90
2022-12-23T15:01:48.217Z,5.90
2022-12-23T15:04:21.077Z,5.90
2022-12-23T15:06:55.145Z,5.90
2022-12-23T15:09:30.272Z,5.90
2022-12-23T15:12:02.856Z,5.90
2022-12-23T15:14:36.113Z,5.90
2022-12-23T15:17:28.779Z,6.00
2022-12-23T15:20:14.071Z,6.00
2022-12-23T15:22:45.698Z,6.00
2022-12-23T15:25:25.440Z,6.00
2022-12-23T15:28:01.468Z,6.00
2022-12-23T15:30:37.082Z,6.00
2022-12-23T15:33:28.238Z,6.00
2022-12-23T15:36:00.224Z,5.90
2022-12-23T15:38:33.373Z,5.90
2022-12-23T15:41:07.131Z,5.90
2022-12-23T15:43:42.949Z,5.90
2022-12-23T15:46:23.637Z,5.80
2022-12-23T15:48:57.821Z,5.80
2022-12-23T15:54:27.984Z,5.80
2022-12-23T15:57:00.606Z,5.70
2022-12-23T15:59:34.620Z,5.70
2022-12-23T16:02:40.323Z,5.70
2022-12-23T16:05:03.682Z,5.70
2022-12-23T16:07:36.137Z,5.60
2022-12-23T16:10:14.825Z,5.60
2022-12-23T16:12:45.945Z,5.60
2022-12-23T16:15:23.986Z,5.60
2022-12-23T16:17:53.231Z,5.50
2022-12-23T16:20:25.178Z,5.50
2022-12-23T16:22:57.832Z,5.50
2022-12-23T16:25:31.571Z,5.50
2022-12-23T16:28:06.227Z,5.50
2022-12-23T16:30:37.950Z,5.50
2022-12-23T16:33:23.125Z,5.50
2022-12-23T16:35:52.835Z,5.50
2022-12-23T16:38:25.187Z,5.50
2022-12-23T16:40:56.781Z,5.50
2022-12-23T16:43:27.647Z,5.40
2022-12-23T16:45:59.436Z,5.50
2022-12-23T16:48:32.756Z,5.40
2022-12-23T16:51:03.975Z,5.40
2022-12-23T16:53:33.920Z,5.40
2022-12-23T16:56:03.946Z,5.40
2022-12-23T16:58:34.934Z,5.40
2022-12-23T17:01:05.254Z,5.40
2022-12-23T17:03:34.758Z,5.30
2022-12-23T17:06:04.425Z,5.30
2022-12-23T17:08:33.957Z,5.30
2022-12-23T17:11:03.976Z,5.30
2022-12-23T17:13:34.827Z,5.20
2022-12-23T17:16:04.656Z,5.20
2022-12-23T17:18:34.075Z,5.10
2022-12-23T17:21:04.477Z,5.00
2022-12-23T17:23:34.482Z,5.00
2022-12-23T17:26:04.162Z,4.90
2022-12-23T17:28:35.149Z,4.80
2022-12-23T17:31:10.221Z,4.80
2022-12-23T17:33:43.336Z,4.80
2022-12-23T17:36:13.727Z,4.70
2022-12-23T17:38:43.245Z,4.70
2022-12-23T17:41:22.389Z,4.70
2022-12-23T17:43:53.232Z,4.60
2022-12-23T17:46:23.093Z,4.50
2022-12-23T17:48:52.541Z,4.50
2022-12-23T17:51:24.712Z,4.40
2022-12-23T17:53:57.801Z,4.40
2022-12-23T17:56:29.884Z,4.30
2022-12-23T17:59:00.640Z,4.30
2022-12-23T18:01:32.617Z,4.20
2022-12-23T18:04:02.918Z,4.10
2022-12-23T18:06:32.777Z,4.10
2022-12-23T18:09:02.104Z,4.00
2022-12-23T18:11:38.121Z,4.00
2022-12-23T18:14:14.751Z,3.90
2022-12-23T18:16:44.479Z,3.80
2022-12-23T18:19:19.044Z,3.80
2022-12-23T18:21:49.343Z,3.70
2022-12-23T18:24:19.777Z,3.70
2022-12-23T18:26:52.431Z,3.60
2022-12-23T18:29:23.553Z,3.60
2022-12-23T18:31:53.338Z,3.60
2022-12-23T18:34:22.907Z,3.50
2022-12-23T18:36:53.099Z,3.50
2022-12-23T18:39:22.593Z,3.50
2022-12-23T18:41:52.327Z,3.60
2022-12-23T18:44:24.312Z,3.60
2022-12-23T18:46:53.976Z,3.60
2022-12-23T18:49:23.281Z,3.60
2022-12-23T18:51:53.230Z,3.70
2022-12-23T18:54:22.719Z,3.70
2022-12-23T18:56:52.411Z,3.70
2022-12-23T18:59:29.816Z,3.70
2022-12-23T19:02:00.222Z,3.60
2022-12-23T19:04:29.958Z,3.60
2022-12-23T19:06:59.879Z,3.60
2022-12-23T19:09:29.756Z,3.50
2022-12-23T19:11:59.446Z,3.60
2022-12-23T19:14:30.322Z,3.50
2022-12-23T19:17:01.395Z,3.60
2022-12-23T19:19:30.653Z,3.60
2022-12-23T19:22:00.660Z,3.50
2022-12-23T19:24:30.275Z,3.50
2022-12-23T19:27:00.246Z,3.50
2022-12-23T19:29:33.919Z,3.50
2022-12-23T19:32:03.851Z,3.40
2022-12-23T19:34:34.172Z,3.40
2022-12-23T19:37:04.134Z,3.40
2022-12-23T19:39:33.653Z,3.40
2022-12-23T19:42:03.703Z,3.40
2022-12-23T19:44:34.713Z,3.40
2022-12-23T19:47:05.226Z,3.30
2022-12-23T19:49:34.831Z,3.40
2022-12-23T19:52:05.235Z,3.30
2022-12-23T19:54:34.789Z,3.30
2022-12-23T19:57:05.369Z,3.30
2022-12-23T19:59:36.167Z,3.30
2022-12-23T20:02:08.609Z,3.30
2022-12-23T20:04:38.538Z,3.30
2022-12-23T20:07:08.245Z,3.20
2022-12-23T20:09:38.249Z,3.20
2022-12-23T20:12:08.352Z,3.30
2022-12-23T20:14:39.291Z,3.20
2022-12-23T20:17:09.186Z,3.20
2022-12-23T20:19:45.583Z,3.20
2022-12-23T20:22:15.924Z,3.20
2022-12-23T20:24:45.415Z,3.20
2022-12-23T20:27:16.310Z,3.10
2022-12-23T20:29:47.748Z,2.90
2022-12-23T20:32:17.769Z,2.80
2022-12-23T20:34:50.290Z,2.70
2022-12-23T20:37:20.063Z,2.70
2022-12-23T20:39:49.529Z,2.70
2022-12-23T20:42:19.968Z,2.70
2022-12-23T20:44:52.041Z,2.50
2022-12-23T20:47:21.821Z,2.40
2022-12-23T20:49:51.237Z,2.30
2022-12-23T20:52:21.302Z,2.20
2022-12-23T20:54:50.642Z,2.10
2022-12-23T20:57:20.757Z,2.10
2022-12-23T20:59:52.105Z,2.00
2022-12-23T21:02:21.939Z,1.90
2022-12-23T21:04:51.334Z,1.90
2022-12-23T21:07:21.169Z,1.80
2022-12-23T21:09:50.734Z,1.80
2022-12-23T21:12:20.886Z,1.70
2022-12-23T21:14:51.759Z,1.60
2022-12-23T21:17:23.442Z,1.60
2022-12-23T21:19:53.954Z,1.70
2022-12-23T21:22:23.716Z,1.70
2022-12-23T21:24:53.055Z,1.80
2022-12-23T21:27:22.904Z,1.80
2022-12-23T21:29:53.697Z,1.70
2022-12-23T21:32:23.111Z,1.70
2022-12-23T21:34:52.471Z,1.60
2022-12-23T21:37:22.120Z,1.50
2022-12-23T21:39:51.413Z,1.40
2022-12-23T21:42:21.507Z,1.40
2022-12-23T21:44:50.888Z,1.20
2022-12-23T21:47:22.106Z,1.10
2022-12-23T21:49:51.404Z,1.20
2022-12-23T21:52:21.022Z,1.10
2022-12-23T21:54:50.457Z,1.10
2022-12-23T21:57:20.237Z,1.10
2022-12-23T21:59:49.507Z,1.00
2022-12-23T22:02:20.788Z,0.80
2022-12-23T22:04:49.766Z,0.90
2022-12-23T22:07:19.392Z,0.90
2022-12-23T22:09:48.676Z,0.80
2022-12-23T22:12:18.742Z,0.80
2022-12-23T22:14:48.362Z,0.80
2022-12-23T22:17:18.065Z,0.80
2022-12-23T22:19:48.808Z,0.90
2022-12-23T22:22:18.818Z,1.10
2022-12-23T22:24:48.209Z,1.20
2022-12-23T22:27:18.430Z,1.30
2022-12-23T22:29:47.936Z,1.40
2022-12-23T22:32:17.831Z,1.50
2022-12-23T22:34:48.723Z,1.50
2022-12-23T22:37:18.862Z,1.60
2022-12-23T22:39:48.283Z,1.50
2022-12-23T22:42:18.434Z,1.60
2022-12-23T22:44:47.747Z,1.60
2022-12-23T22:47:17.871Z,1.60
2022-12-23T22:49:49.098Z,1.60
2022-12-23T22:52:18.818Z,1.80
2022-12-23T22:54:48.130Z,1.70
2022-12-23T22:57:18.142Z,1.70
2022-12-23T22:59:47.708Z,1.60
2022-12-23T23:02:17.837Z,1.60
2022-12-23T23:04:48.652Z,1.60
2022-12-23T23:07:18.773Z,1.50
2022-12-23T23:09:48.285Z,1.40
2022-12-23T23:12:18.084Z,1.40
2022-12-23T23:14:57.050Z,1.30
2022-12-23T23:17:28.914Z,1.20
2022-12-23T23:19:59.636Z,1.20
2022-12-23T23:22:29.694Z,1.10
2022-12-23T23:24:58.984Z,1.10
2022-12-23T23:27:28.755Z,1.00
2022-12-23T23:29:58.325Z,1.00
2022-12-23T23:32:28.233Z,1.00
2022-12-23T23:34:59.021Z,0.90
2022-12-23T23:37:28.782Z,0.80
2022-12-23T23:39:58.161Z,0.70
2022-12-23T23:42:27.841Z,0.60
2022-12-23T23:44:57.114Z,0.50
2022-12-23T23:47:26.926Z,0.40
2022-12-23T23:49:56.389Z,0.30
2022-12-23T23:52:28.159Z,0.20
2022-12-23T23:54:57.624Z,0.10
2022-12-23T23:57:27.863Z,0.10
2022-12-23T23:59:57.191Z,0.00
